sensor_id;sensor_type;location;lat;lon;timestamp;P1;durP1;ratioP1;P2;durP2;ratioP2
62574;SDS011;53112;45.602;11.904;2023-03-24T00:02:26;6.82;;;4.43;;
62574;SDS011;53112;45.602;11.904;2023-03-24T00:04:52;6.40;;;4.43;;
62574;SDS011;53112;45.602;11.904;2023-03-24T00:07:23;5.65;;;3.90;;
62574;SDS011;53112;45.602;11.904;2023-03-24T00:09:49;6.22;;;4.15;;
62574;SDS011;53112;45.602;11.904;2023-03-24T00:12:15;6.45;;;4.55;;
62574;SDS011;53112;45.602;11.904;2023-03-24T00:14:44;6.10;;;4.65;;
62574;SDS011;53112;45.602;11.904;2023-03-24T00:17:13;5.65;;;4.47;;
62574;SDS011;53112;45.602;11.904;2023-03-24T00:19:41;6.70;;;4.53;;
62574;SDS011;53112;45.602;11.904;2023-03-24T00:22:09;7.00;;;4.68;;
62574;SDS011;53112;45.602;11.904;2023-03-24T00:24:40;6.70;;;4.38;;
62574;SDS011;53112;45.602;11.904;2023-03-24T00:27:06;6.53;;;4.50;;
62574;SDS011;53112;45.602;11.904;2023-03-24T00:29:32;6.55;;;4.47;;
62574;SDS011;53112;45.602;11.904;2023-03-24T00:32:00;5.70;;;4.50;;
62574;SDS011;53112;45.602;11.904;2023-03-24T00:34:26;6.68;;;4.43;;
62574;SDS011;53112;45.602;11.904;2023-03-24T00:36:52;6.03;;;4.63;;
62574;SDS011;53112;45.602;11.904;2023-03-24T00:39:18;6.85;;;4.53;;
62574;SDS011;53112;45.602;11.904;2023-03-24T00:41:46;6.95;;;4.90;;
62574;SDS011;53112;45.602;11.904;2023-03-24T00:44:16;7.07;;;4.97;;
62574;SDS011;53112;45.602;11.904;2023-03-24T00:46:48;6.40;;;4.50;;
62574;SDS011;53112;45.602;11.904;2023-03-24T00:49:29;6.32;;;4.72;;
62574;SDS011;53112;45.602;11.904;2023-03-24T00:52:16;6.85;;;4.90;;
62574;SDS011;53112;45.602;11.904;2023-03-24T00:54:45;6.63;;;4.70;;
62574;SDS011;53112;45.602;11.904;2023-03-24T00:57:13;7.70;;;5.00;;
62574;SDS011;53112;45.602;11.904;2023-03-24T00:59:47;7.25;;;4.97;;
62574;SDS011;53112;45.602;11.904;2023-03-24T01:02:18;8.05;;;5.10;;
62574;SDS011;53112;45.602;11.904;2023-03-24T01:04:50;7.70;;;5.00;;
62574;SDS011;53112;45.602;11.904;2023-03-24T01:07:19;7.25;;;4.97;;
62574;SDS011;53112;45.602;11.904;2023-03-24T01:09:46;7.90;;;5.20;;
62574;SDS011;53112;45.602;11.904;2023-03-24T01:12:17;7.15;;;5.13;;
62574;SDS011;53112;45.602;11.904;2023-03-24T01:14:44;6.85;;;5.00;;
62574;SDS011;53112;45.602;11.904;2023-03-24T01:17:10;6.97;;;4.78;;
62574;SDS011;53112;45.602;11.904;2023-03-24T01:19:37;7.30;;;5.03;;
62574;SDS011;53112;45.602;11.904;2023-03-24T01:22:04;8.43;;;5.10;;
62574;SDS011;53112;45.602;11.904;2023-03-24T01:24:31;7.07;;;5.22;;
62574;SDS011;53112;45.602;11.904;2023-03-24T01:26:58;7.97;;;5.20;;
62574;SDS011;53112;45.602;11.904;2023-03-24T01:29:23;7.57;;;5.10;;
62574;SDS011;53112;45.602;11.904;2023-03-24T01:31:50;7.40;;;5.40;;
62574;SDS011;53112;45.602;11.904;2023-03-24T01:34:15;7.38;;;4.85;;
62574;SDS011;53112;45.602;11.904;2023-03-24T01:36:42;6.97;;;5.05;;
62574;SDS011;53112;45.602;11.904;2023-03-24T01:39:08;7.80;;;5.47;;
62574;SDS011;53112;45.602;11.904;2023-03-24T01:41:35;6.80;;;5.10;;
62574;SDS011;53112;45.602;11.904;2023-03-24T01:47:01;6.80;;;5.00;;
62574;SDS011;53112;45.602;11.904;2023-03-24T01:49:32;8.18;;;5.45;;
62574;SDS011;53112;45.602;11.904;2023-03-24T01:52:16;8.43;;;5.07;;
62574;SDS011;53112;45.602;11.904;2023-03-24T01:55:09;7.55;;;5.15;;
62574;SDS011;53112;45.602;11.904;2023-03-24T01:57:49;7.18;;;5.30;;
62574;SDS011;53112;45.602;11.904;2023-03-24T02:00:19;7.53;;;4.93;;
62574;SDS011;53112;45.602;11.904;2023-03-24T02:02:49;7.57;;;5.10;;
62574;SDS011;53112;45.602;11.904;2023-03-24T02:05:24;7.90;;;5.57;;
62574;SDS011;53112;45.602;11.904;2023-03-24T02:08:00;8.00;;;5.20;;
62574;SDS011;53112;45.602;11.904;2023-03-24T02:10:37;7.53;;;5.30;;
62574;SDS011;53112;45.602;11.904;2023-03-24T02:13:03;7.63;;;5.25;;
62574;SDS011;53112;45.602;11.904;2023-03-24T02:18:59;8.07;;;5.30;;
62574;SDS011;53112;45.602;11.904;2023-03-24T02:24:29;6.82;;;5.07;;
62574;SDS011;53112;45.602;11.904;2023-03-24T02:27:05;7.40;;;5.00;;
62574;SDS011;53112;45.602;11.904;2023-03-24T02:29:59;7.97;;;5.20;;
62574;SDS011;53112;45.602;11.904;2023-03-24T02:32:52;6.68;;;4.78;;
62574;SDS011;53112;45.602;11.904;2023-03-24T02:46:35;8.38;;;5.53;;
62574;SDS011;53112;45.602;11.904;2023-03-24T02:51:52;7.20;;;5.20;;
62574;SDS011;53112;45.602;11.904;2023-03-24T02:54:43;7.80;;;5.28;;
62574;SDS011;53112;45.602;11.904;2023-03-24T02:57:34;7.15;;;5.00;;
62574;SDS011;53112;45.602;11.904;2023-03-24T03:00:11;7.47;;;5.60;;
62574;SDS011;53112;45.602;11.904;2023-03-24T03:03:04;7.47;;;5.28;;
62574;SDS011;53112;45.602;11.904;2023-03-24T03:05:43;7.50;;;5.35;;
62574;SDS011;53112;45.602;11.904;2023-03-24T03:08:26;7.63;;;5.05;;
62574;SDS011;53112;45.602;11.904;2023-03-24T03:10:56;7.68;;;5.03;;
62574;SDS011;53112;45.602;11.904;2023-03-24T03:13:25;7.22;;;5.43;;
62574;SDS011;53112;45.602;11.904;2023-03-24T03:16:13;7.28;;;5.57;;
62574;SDS011;53112;45.602;11.904;2023-03-24T03:18:56;6.97;;;5.05;;
62574;SDS011;53112;45.602;11.904;2023-03-24T03:21:27;8.50;;;5.10;;
62574;SDS011;53112;45.602;11.904;2023-03-24T03:24:05;7.07;;;5.47;;
62574;SDS011;53112;45.602;11.904;2023-03-24T03:26:35;6.82;;;5.10;;
62574;SDS011;53112;45.602;11.904;2023-03-24T03:29:04;8.20;;;5.22;;
62574;SDS011;53112;45.602;11.904;2023-03-24T03:31:43;6.88;;;5.10;;
62574;SDS011;53112;45.602;11.904;2023-03-24T03:37:18;8.18;;;5.45;;
62574;SDS011;53112;45.602;11.904;2023-03-24T03:39:58;7.18;;;4.90;;
62574;SDS011;53112;45.602;11.904;2023-03-24T03:42:34;7.30;;;5.28;;
62574;SDS011;53112;45.602;11.904;2023-03-24T03:45:00;7.80;;;5.25;;
62574;SDS011;53112;45.602;11.904;2023-03-24T03:47:26;7.90;;;5.13;;
62574;SDS011;53112;45.602;11.904;2023-03-24T03:49:52;8.07;;;5.32;;
62574;SDS011;53112;45.602;11.904;2023-03-24T03:52:18;7.20;;;5.30;;
62574;SDS011;53112;45.602;11.904;2023-03-24T03:54:45;7.97;;;5.85;;
62574;SDS011;53112;45.602;11.904;2023-03-24T03:57:12;6.85;;;5.03;;
62574;SDS011;53112;45.602;11.904;2023-03-24T03:59:39;7.65;;;5.70;;
62574;SDS011;53112;45.602;11.904;2023-03-24T04:04:46;6.60;;;5.00;;
62574;SDS011;53112;45.602;11.904;2023-03-24T04:10:30;7.10;;;5.43;;
62574;SDS011;53112;45.602;11.904;2023-03-24T04:13:12;7.13;;;5.10;;
62574;SDS011;53112;45.602;11.904;2023-03-24T04:15:45;7.70;;;5.22;;
62574;SDS011;53112;45.602;11.904;2023-03-24T04:27:11;7.70;;;5.30;;
62574;SDS011;53112;45.602;11.904;2023-03-24T04:35:39;7.03;;;5.30;;
62574;SDS011;53112;45.602;11.904;2023-03-24T04:38:14;7.38;;;5.18;;
62574;SDS011;53112;45.602;11.904;2023-03-24T04:40:50;8.13;;;5.32;;
62574;SDS011;53112;45.602;11.904;2023-03-24T04:43:20;7.50;;;5.20;;
62574;SDS011;53112;45.602;11.904;2023-03-24T04:48:22;8.50;;;5.57;;
62574;SDS011;53112;45.602;11.904;2023-03-24T04:50:53;6.75;;;4.93;;
62574;SDS011;53112;45.602;11.904;2023-03-24T04:53:24;7.82;;;5.20;;
62574;SDS011;53112;45.602;11.904;2023-03-24T04:58:38;7.10;;;5.18;;
62574;SDS011;53112;45.602;11.904;2023-03-24T05:01:04;6.60;;;4.90;;
62574;SDS011;53112;45.602;11.904;2023-03-24T05:03:30;7.60;;;5.20;;
62574;SDS011;53112;45.602;11.904;2023-03-24T05:05:56;7.90;;;5.03;;
62574;SDS011;53112;45.602;11.904;2023-03-24T05:08:23;7.75;;;5.50;;
62574;SDS011;53112;45.602;11.904;2023-03-24T05:10:49;7.38;;;5.05;;
62574;SDS011;53112;45.602;11.904;2023-03-24T05:13:15;7.22;;;5.15;;
62574;SDS011;53112;45.602;11.904;2023-03-24T05:15:41;8.13;;;5.40;;
62574;SDS011;53112;45.602;11.904;2023-03-24T05:18:07;8.18;;;5.50;;
62574;SDS011;53112;45.602;11.904;2023-03-24T05:20:33;7.05;;;5.25;;
62574;SDS011;53112;45.602;11.904;2023-03-24T05:22:59;7.53;;;5.40;;
62574;SDS011;53112;45.602;11.904;2023-03-24T05:25:26;7.50;;;5.38;;
62574;SDS011;53112;45.602;11.904;2023-03-24T05:27:52;6.40;;;5.03;;
62574;SDS011;53112;45.602;11.904;2023-03-24T05:30:18;7.45;;;5.25;;
62574;SDS011;53112;45.602;11.904;2023-03-24T05:32:44;7.30;;;5.30;;
62574;SDS011;53112;45.602;11.904;2023-03-24T05:35:10;7.45;;;5.40;;
62574;SDS011;53112;45.602;11.904;2023-03-24T05:37:36;7.40;;;5.40;;
62574;SDS011;53112;45.602;11.904;2023-03-24T05:40:02;6.80;;;5.05;;
62574;SDS011;53112;45.602;11.904;2023-03-24T05:42:28;6.72;;;5.10;;
62574;SDS011;53112;45.602;11.904;2023-03-24T05:44:54;6.78;;;5.28;;
62574;SDS011;53112;45.602;11.904;2023-03-24T05:47:19;7.82;;;5.15;;
62574;SDS011;53112;45.602;11.904;2023-03-24T05:49:46;6.90;;;5.22;;
62574;SDS011;53112;45.602;11.904;2023-03-24T05:52:12;7.43;;;5.43;;
62574;SDS011;53112;45.602;11.904;2023-03-24T05:54:40;7.63;;;5.40;;
62574;SDS011;53112;45.602;11.904;2023-03-24T05:57:09;6.53;;;5.13;;
62574;SDS011;53112;45.602;11.904;2023-03-24T05:59:40;6.75;;;5.20;;
62574;SDS011;53112;45.602;11.904;2023-03-24T06:02:06;7.72;;;5.45;;
62574;SDS011;53112;45.602;11.904;2023-03-24T06:04:33;7.00;;;5.00;;
62574;SDS011;53112;45.602;11.904;2023-03-24T06:06:59;6.80;;;5.10;;
62574;SDS011;53112;45.602;11.904;2023-03-24T06:09:25;6.75;;;5.07;;
62574;SDS011;53112;45.602;11.904;2023-03-24T06:11:59;7.55;;;5.25;;
62574;SDS011;53112;45.602;11.904;2023-03-24T06:14:29;8.60;;;5.65;;
62574;SDS011;53112;45.602;11.904;2023-03-24T06:16:55;6.57;;;5.20;;
62574;SDS011;53112;45.602;11.904;2023-03-24T06:19:23;6.65;;;5.00;;
62574;SDS011;53112;45.602;11.904;2023-03-24T06:21:51;7.90;;;5.57;;
62574;SDS011;53112;45.602;11.904;2023-03-24T06:24:18;7.03;;;5.20;;
62574;SDS011;53112;45.602;11.904;2023-03-24T06:26:44;7.18;;;5.25;;
62574;SDS011;53112;45.602;11.904;2023-03-24T06:29:14;6.93;;;5.03;;
62574;SDS011;53112;45.602;11.904;2023-03-24T06:31:44;6.68;;;5.15;;
62574;SDS011;53112;45.602;11.904;2023-03-24T06:34:12;7.15;;;5.30;;
62574;SDS011;53112;45.602;11.904;2023-03-24T06:36:38;7.10;;;4.97;;
62574;SDS011;53112;45.602;11.904;2023-03-24T06:39:04;8.68;;;5.00;;
62574;SDS011;53112;45.602;11.904;2023-03-24T06:41:32;6.78;;;4.80;;
62574;SDS011;53112;45.602;11.904;2023-03-24T06:43:58;7.15;;;4.95;;
62574;SDS011;53112;45.602;11.904;2023-03-24T06:46:24;7.60;;;5.57;;
62574;SDS011;53112;45.602;11.904;2023-03-24T06:48:50;7.13;;;5.30;;
62574;SDS011;53112;45.602;11.904;2023-03-24T06:51:16;7.72;;;5.00;;
62574;SDS011;53112;45.602;11.904;2023-03-24T06:53:42;6.97;;;4.90;;
62574;SDS011;53112;45.602;11.904;2023-03-24T06:56:10;7.00;;;4.93;;
62574;SDS011;53112;45.602;11.904;2023-03-24T06:58:41;8.50;;;4.90;;
62574;SDS011;53112;45.602;11.904;2023-03-24T07:01:07;9.18;;;4.85;;
62574;SDS011;53112;45.602;11.904;2023-03-24T07:03:33;6.88;;;5.00;;
62574;SDS011;53112;45.602;11.904;2023-03-24T07:05:59;7.72;;;4.88;;
62574;SDS011;53112;45.602;11.904;2023-03-24T07:08:25;7.28;;;5.15;;
62574;SDS011;53112;45.602;11.904;2023-03-24T07:10:51;7.38;;;5.15;;
62574;SDS011;53112;45.602;11.904;2023-03-24T07:13:18;8.95;;;4.95;;
62574;SDS011;53112;45.602;11.904;2023-03-24T07:15:44;8.02;;;5.30;;
62574;SDS011;53112;45.602;11.904;2023-03-24T07:18:10;8.48;;;4.90;;
62574;SDS011;53112;45.602;11.904;2023-03-24T07:20:37;7.93;;;5.13;;
62574;SDS011;53112;45.602;11.904;2023-03-24T07:23:04;8.35;;;5.30;;
62574;SDS011;53112;45.602;11.904;2023-03-24T07:25:30;8.13;;;5.32;;
62574;SDS011;53112;45.602;11.904;2023-03-24T07:27:59;6.93;;;4.72;;
62574;SDS011;53112;45.602;11.904;2023-03-24T07:30:25;9.07;;;4.65;;
62574;SDS011;53112;45.602;11.904;2023-03-24T07:32:54;8.10;;;5.10;;
62574;SDS011;53112;45.602;11.904;2023-03-24T07:35:20;7.75;;;5.18;;
62574;SDS011;53112;45.602;11.904;2023-03-24T07:37:46;7.32;;;5.15;;
62574;SDS011;53112;45.602;11.904;2023-03-24T07:40:13;7.88;;;5.13;;
62574;SDS011;53112;45.602;11.904;2023-03-24T07:42:40;7.88;;;4.55;;
62574;SDS011;53112;45.602;11.904;2023-03-24T07:45:10;7.95;;;4.90;;
62574;SDS011;53112;45.602;11.904;2023-03-24T07:47:37;6.90;;;4.82;;
62574;SDS011;53112;45.602;11.904;2023-03-24T07:50:04;6.95;;;4.90;;
62574;SDS011;53112;45.602;11.904;2023-03-24T07:52:37;7.22;;;4.78;;
62574;SDS011;53112;45.602;11.904;2023-03-24T07:55:08;7.47;;;4.70;;
62574;SDS011;53112;45.602;11.904;2023-03-24T07:57:36;9.43;;;5.03;;
62574;SDS011;53112;45.602;11.904;2023-03-24T08:00:05;7.38;;;4.97;;
62574;SDS011;53112;45.602;11.904;2023-03-24T08:02:39;9.30;;;5.53;;
62574;SDS011;53112;45.602;11.904;2023-03-24T08:05:06;9.32;;;5.25;;
62574;SDS011;53112;45.602;11.904;2023-03-24T08:07:35;8.88;;;5.10;;
62574;SDS011;53112;45.602;11.904;2023-03-24T08:10:01;8.52;;;5.20;;
62574;SDS011;53112;45.602;11.904;2023-03-24T08:12:30;8.07;;;5.20;;
62574;SDS011;53112;45.602;11.904;2023-03-24T08:14:56;8.95;;;5.50;;
62574;SDS011;53112;45.602;11.904;2023-03-24T08:17:22;8.10;;;5.53;;
62574;SDS011;53112;45.602;11.904;2023-03-24T08:19:48;9.32;;;4.95;;
62574;SDS011;53112;45.602;11.904;2023-03-24T08:22:14;6.97;;;4.80;;
62574;SDS011;53112;45.602;11.904;2023-03-24T08:24:40;7.95;;;5.10;;
62574;SDS011;53112;45.602;11.904;2023-03-24T08:27:06;7.43;;;4.90;;
62574;SDS011;53112;45.602;11.904;2023-03-24T08:29:33;8.27;;;5.55;;
62574;SDS011;53112;45.602;11.904;2023-03-24T08:31:59;7.85;;;5.53;;
62574;SDS011;53112;45.602;11.904;2023-03-24T08:34:26;8.07;;;5.82;;
62574;SDS011;53112;45.602;11.904;2023-03-24T08:36:52;9.27;;;5.70;;
62574;SDS011;53112;45.602;11.904;2023-03-24T08:39:18;7.90;;;5.50;;
62574;SDS011;53112;45.602;11.904;2023-03-24T08:41:44;8.55;;;5.78;;
62574;SDS011;53112;45.602;11.904;2023-03-24T08:44:14;9.90;;;5.80;;
62574;SDS011;53112;45.602;11.904;2023-03-24T08:46:40;7.75;;;5.22;;
62574;SDS011;53112;45.602;11.904;2023-03-24T08:49:07;6.95;;;5.30;;
62574;SDS011;53112;45.602;11.904;2023-03-24T08:51:33;8.13;;;5.28;;
62574;SDS011;53112;45.602;11.904;2023-03-24T08:53:59;7.53;;;5.22;;
62574;SDS011;53112;45.602;11.904;2023-03-24T08:56:25;8.02;;;5.15;;
62574;SDS011;53112;45.602;11.904;2023-03-24T08:58:52;8.95;;;5.57;;
62574;SDS011;53112;45.602;11.904;2023-03-24T09:01:20;9.13;;;5.15;;
62574;SDS011;53112;45.602;11.904;2023-03-24T09:03:47;7.97;;;5.50;;
62574;SDS011;53112;45.602;11.904;2023-03-24T09:06:13;8.35;;;5.07;;
62574;SDS011;53112;45.602;11.904;2023-03-24T09:08:40;9.65;;;6.30;;
62574;SDS011;53112;45.602;11.904;2023-03-24T09:11:06;7.55;;;4.95;;
62574;SDS011;53112;45.602;11.904;2023-03-24T09:13:37;9.43;;;6.43;;
62574;SDS011;53112;45.602;11.904;2023-03-24T09:16:03;8.23;;;5.65;;
62574;SDS011;53112;45.602;11.904;2023-03-24T09:18:29;9.07;;;5.40;;
62574;SDS011;53112;45.602;11.904;2023-03-24T09:20:55;6.95;;;4.90;;
62574;SDS011;53112;45.602;11.904;2023-03-24T09:23:22;7.45;;;5.07;;
62574;SDS011;53112;45.602;11.904;2023-03-24T09:25:51;8.55;;;5.15;;
62574;SDS011;53112;45.602;11.904;2023-03-24T09:28:20;6.32;;;4.70;;
62574;SDS011;53112;45.602;11.904;2023-03-24T09:30:46;7.40;;;4.80;;
62574;SDS011;53112;45.602;11.904;2023-03-24T09:33:13;7.68;;;4.95;;
62574;SDS011;53112;45.602;11.904;2023-03-24T09:35:39;8.57;;;4.53;;
62574;SDS011;53112;45.602;11.904;2023-03-24T09:38:05;7.13;;;4.60;;
62574;SDS011;53112;45.602;11.904;2023-03-24T09:40:32;6.93;;;4.90;;
62574;SDS011;53112;45.602;11.904;2023-03-24T09:43:04;7.03;;;4.88;;
62574;SDS011;53112;45.602;11.904;2023-03-24T09:45:43;6.72;;;4.80;;
62574;SDS011;53112;45.602;11.904;2023-03-24T09:51:00;9.82;;;4.82;;
62574;SDS011;53112;45.602;11.904;2023-03-24T09:56:16;8.13;;;4.85;;
62574;SDS011;53112;45.602;11.904;2023-03-24T09:58:44;6.38;;;4.82;;
62574;SDS011;53112;45.602;11.904;2023-03-24T10:01:14;8.80;;;5.00;;
62574;SDS011;53112;45.602;11.904;2023-03-24T10:03:42;7.25;;;4.90;;
62574;SDS011;53112;45.602;11.904;2023-03-24T10:06:11;6.75;;;4.72;;
62574;SDS011;53112;45.602;11.904;2023-03-24T10:08:40;9.70;;;5.18;;
62574;SDS011;53112;45.602;11.904;2023-03-24T10:20:01;7.07;;;4.78;;
62574;SDS011;53112;45.602;11.904;2023-03-24T10:22:51;7.13;;;5.20;;
62574;SDS011;53112;45.602;11.904;2023-03-24T10:25:22;8.45;;;4.90;;
62574;SDS011;53112;45.602;11.904;2023-03-24T10:28:15;10.52;;;5.25;;
62574;SDS011;53112;45.602;11.904;2023-03-24T10:30:48;8.95;;;5.15;;
62574;SDS011;53112;45.602;11.904;2023-03-24T10:33:17;7.95;;;5.97;;
62574;SDS011;53112;45.602;11.904;2023-03-24T10:38:33;7.10;;;4.90;;
62574;SDS011;53112;45.602;11.904;2023-03-24T10:40:59;9.05;;;5.07;;
62574;SDS011;53112;45.602;11.904;2023-03-24T10:43:27;8.85;;;4.80;;
62574;SDS011;53112;45.602;11.904;2023-03-24T10:45:55;6.80;;;4.80;;
62574;SDS011;53112;45.602;11.904;2023-03-24T10:51:12;9.90;;;4.95;;
62574;SDS011;53112;45.602;11.904;2023-03-24T10:53:40;9.65;;;5.13;;
62574;SDS011;53112;45.602;11.904;2023-03-24T10:56:07;8.07;;;4.50;;
62574;SDS011;53112;45.602;11.904;2023-03-24T10:58:39;7.95;;;5.30;;
62574;SDS011;53112;45.602;11.904;2023-03-24T11:01:28;9.10;;;5.10;;
62574;SDS011;53112;45.602;11.904;2023-03-24T11:03:59;7.80;;;4.65;;
62574;SDS011;53112;45.602;11.904;2023-03-24T11:06:29;9.57;;;5.22;;
62574;SDS011;53112;45.602;11.904;2023-03-24T11:09:10;8.38;;;5.03;;
62574;SDS011;53112;45.602;11.904;2023-03-24T11:11:44;8.93;;;5.45;;
62574;SDS011;53112;45.602;11.904;2023-03-24T11:14:18;10.32;;;5.03;;
62574;SDS011;53112;45.602;11.904;2023-03-24T11:16:51;9.98;;;5.70;;
62574;SDS011;53112;45.602;11.904;2023-03-24T11:19:24;7.78;;;5.47;;
62574;SDS011;53112;45.602;11.904;2023-03-24T11:21:51;11.02;;;6.90;;
62574;SDS011;53112;45.602;11.904;2023-03-24T11:24:24;15.52;;;9.15;;
62574;SDS011;53112;45.602;11.904;2023-03-24T11:26:59;11.02;;;7.32;;
62574;SDS011;53112;45.602;11.904;2023-03-24T11:29:26;12.65;;;8.43;;
62574;SDS011;53112;45.602;11.904;2023-03-24T11:31:58;9.50;;;7.03;;
62574;SDS011;53112;45.602;11.904;2023-03-24T11:34:30;13.32;;;8.88;;
62574;SDS011;53112;45.602;11.904;2023-03-24T11:37:12;13.68;;;8.60;;
62574;SDS011;53112;45.602;11.904;2023-03-24T11:42:56;11.25;;;6.57;;
62574;SDS011;53112;45.602;11.904;2023-03-24T11:45:42;11.70;;;7.75;;
62574;SDS011;53112;45.602;11.904;2023-03-24T11:48:32;9.30;;;6.07;;
62574;SDS011;53112;45.602;11.904;2023-03-24T11:51:02;10.00;;;7.50;;
62574;SDS011;53112;45.602;11.904;2023-03-24T11:53:32;9.45;;;6.35;;
62574;SDS011;53112;45.602;11.904;2023-03-24T12:04:22;8.45;;;5.30;;
62574;SDS011;53112;45.602;11.904;2023-03-24T12:18:12;10.13;;;7.10;;
62574;SDS011;53112;45.602;11.904;2023-03-24T12:28:50;10.32;;;5.38;;
62574;SDS011;53112;45.602;11.904;2023-03-24T12:42:51;11.18;;;5.97;;
62574;SDS011;53112;45.602;11.904;2023-03-24T12:56:29;11.07;;;5.45;;
62574;SDS011;53112;45.602;11.904;2023-03-24T12:59:18;11.75;;;5.47;;
62574;SDS011;53112;45.602;11.904;2023-03-24T13:02:03;10.10;;;5.35;;
62574;SDS011;53112;45.602;11.904;2023-03-24T13:04:36;11.27;;;5.72;;
62574;SDS011;53112;45.602;11.904;2023-03-24T13:07:10;11.17;;;5.67;;
62574;SDS011;53112;45.602;11.904;2023-03-24T13:15:32;14.00;;;5.45;;
62574;SDS011;53112;45.602;11.904;2023-03-24T13:18:17;11.73;;;5.90;;
62574;SDS011;53112;45.602;11.904;2023-03-24T13:21:17;9.05;;;5.30;;
62574;SDS011;53112;45.602;11.904;2023-03-24T13:37:31;9.65;;;5.60;;
62574;SDS011;53112;45.602;11.904;2023-03-24T13:40:04;11.73;;;5.70;;
62574;SDS011;53112;45.602;11.904;2023-03-24T13:42:36;11.07;;;6.10;;
62574;SDS011;53112;45.602;11.904;2023-03-24T13:45:22;11.55;;;6.53;;
62574;SDS011;53112;45.602;11.904;2023-03-24T13:50:37;10.48;;;5.90;;
62574;SDS011;53112;45.602;11.904;2023-03-24T13:53:11;9.82;;;5.53;;
62574;SDS011;53112;45.602;11.904;2023-03-24T13:55:40;11.52;;;7.25;;
62574;SDS011;53112;45.602;11.904;2023-03-24T13:58:18;11.63;;;6.53;;
62574;SDS011;53112;45.602;11.904;2023-03-24T14:01:14;9.30;;;5.25;;
62574;SDS011;53112;45.602;11.904;2023-03-24T14:06:49;10.15;;;5.55;;
62574;SDS011;53112;45.602;11.904;2023-03-24T14:09:21;8.88;;;5.30;;
62574;SDS011;53112;45.602;11.904;2023-03-24T14:14:27;9.80;;;5.40;;
62574;SDS011;53112;45.602;11.904;2023-03-24T14:17:13;8.45;;;5.35;;
62574;SDS011;53112;45.602;11.904;2023-03-24T14:19:43;9.55;;;5.55;;
62574;SDS011;53112;45.602;11.904;2023-03-24T14:22:39;7.90;;;5.25;;
62574;SDS011;53112;45.602;11.904;2023-03-24T14:27:42;8.15;;;5.50;;
62574;SDS011;53112;45.602;11.904;2023-03-24T14:32:43;9.75;;;5.30;;
62574;SDS011;53112;45.602;11.904;2023-03-24T14:35:22;7.80;;;5.03;;
62574;SDS011;53112;45.602;11.904;2023-03-24T14:38:02;9.75;;;4.78;;
62574;SDS011;53112;45.602;11.904;2023-03-24T14:40:42;7.95;;;5.10;;
62574;SDS011;53112;45.602;11.904;2023-03-24T14:57:29;9.45;;;5.38;;
62574;SDS011;53112;45.602;11.904;2023-03-24T15:02:44;7.70;;;5.07;;
62574;SDS011;53112;45.602;11.904;2023-03-24T15:07:41;7.45;;;5.07;;
62574;SDS011;53112;45.602;11.904;2023-03-24T15:10:14;9.32;;;5.68;;
62574;SDS011;53112;45.602;11.904;2023-03-24T15:12:44;8.00;;;5.40;;
62574;SDS011;53112;45.602;11.904;2023-03-24T15:15:16;7.72;;;4.75;;
62574;SDS011;53112;45.602;11.904;2023-03-24T15:17:49;7.80;;;4.75;;
62574;SDS011;53112;45.602;11.904;2023-03-24T15:20:20;7.95;;;4.80;;
62574;SDS011;53112;45.602;11.904;2023-03-24T15:23:05;7.25;;;4.60;;
62574;SDS011;53112;45.602;11.904;2023-03-24T15:25:32;9.18;;;5.10;;
62574;SDS011;53112;45.602;11.904;2023-03-24T15:27:58;8.77;;;5.22;;
62574;SDS011;53112;45.602;11.904;2023-03-24T15:30:24;7.88;;;4.75;;
62574;SDS011;53112;45.602;11.904;2023-03-24T15:32:52;8.95;;;4.78;;
62574;SDS011;53112;45.602;11.904;2023-03-24T15:35:22;9.02;;;5.57;;
62574;SDS011;53112;45.602;11.904;2023-03-24T15:37:49;9.45;;;5.43;;
62574;SDS011;53112;45.602;11.904;2023-03-24T15:42:54;8.70;;;5.45;;
62574;SDS011;53112;45.602;11.904;2023-03-24T15:48:04;9.38;;;5.57;;
62574;SDS011;53112;45.602;11.904;2023-03-24T15:53:37;7.97;;;5.20;;
62574;SDS011;53112;45.602;11.904;2023-03-24T15:56:40;8.73;;;5.25;;
62574;SDS011;53112;45.602;11.904;2023-03-24T15:59:05;9.15;;;5.18;;
62574;SDS011;53112;45.602;11.904;2023-03-24T16:01:37;7.40;;;5.00;;
62574;SDS011;53112;45.602;11.904;2023-03-24T16:04:06;10.13;;;6.43;;
62574;SDS011;53112;45.602;11.904;2023-03-24T16:06:38;8.15;;;4.72;;
62574;SDS011;53112;45.602;11.904;2023-03-24T16:09:10;11.48;;;6.25;;
62574;SDS011;53112;45.602;11.904;2023-03-24T16:11:38;7.65;;;5.18;;
62574;SDS011;53112;45.602;11.904;2023-03-24T16:14:38;8.77;;;5.45;;
62574;SDS011;53112;45.602;11.904;2023-03-24T16:17:00;7.90;;;5.40;;
62574;SDS011;53112;45.602;11.904;2023-03-24T16:19:27;8.90;;;5.70;;
62574;SDS011;53112;45.602;11.904;2023-03-24T16:21:54;8.25;;;5.57;;
62574;SDS011;53112;45.602;11.904;2023-03-24T16:24:20;8.23;;;5.65;;
62574;SDS011;53112;45.602;11.904;2023-03-24T16:26:47;8.82;;;5.38;;
62574;SDS011;53112;45.602;11.904;2023-03-24T16:29:15;9.88;;;5.75;;
62574;SDS011;53112;45.602;11.904;2023-03-24T16:31:46;9.18;;;5.38;;
62574;SDS011;53112;45.602;11.904;2023-03-24T16:34:17;9.43;;;5.97;;
62574;SDS011;53112;45.602;11.904;2023-03-24T16:36:45;9.68;;;5.68;;
62574;SDS011;53112;45.602;11.904;2023-03-24T16:39:13;8.25;;;5.68;;
62574;SDS011;53112;45.602;11.904;2023-03-24T16:41:41;8.27;;;5.85;;
62574;SDS011;53112;45.602;11.904;2023-03-24T16:44:07;8.50;;;5.93;;
62574;SDS011;53112;45.602;11.904;2023-03-24T16:46:35;9.50;;;6.43;;
62574;SDS011;53112;45.602;11.904;2023-03-24T16:49:02;9.82;;;6.70;;
62574;SDS011;53112;45.602;11.904;2023-03-24T16:51:31;8.93;;;6.53;;
62574;SDS011;53112;45.602;11.904;2023-03-24T16:53:57;8.75;;;5.93;;
62574;SDS011;53112;45.602;11.904;2023-03-24T16:56:23;10.80;;;7.00;;
62574;SDS011;53112;45.602;11.904;2023-03-24T16:58:50;9.43;;;6.60;;
62574;SDS011;53112;45.602;11.904;2023-03-24T17:01:20;10.43;;;6.68;;
62574;SDS011;53112;45.602;11.904;2023-03-24T17:03:57;9.63;;;6.30;;
62574;SDS011;53112;45.602;11.904;2023-03-24T17:06:29;11.38;;;7.50;;
62574;SDS011;53112;45.602;11.904;2023-03-24T17:08:57;10.57;;;6.57;;
62574;SDS011;53112;45.602;11.904;2023-03-24T17:11:43;10.77;;;6.45;;
62574;SDS011;53112;45.602;11.904;2023-03-24T17:14:12;11.70;;;8.00;;
62574;SDS011;53112;45.602;11.904;2023-03-24T17:16:39;11.68;;;8.02;;
62574;SDS011;53112;45.602;11.904;2023-03-24T17:19:08;10.10;;;6.70;;
62574;SDS011;53112;45.602;11.904;2023-03-24T17:21:37;9.65;;;6.60;;
62574;SDS011;53112;45.602;11.904;2023-03-24T17:24:09;10.68;;;6.97;;
62574;SDS011;53112;45.602;11.904;2023-03-24T17:26:37;11.13;;;7.60;;
62574;SDS011;53112;45.602;11.904;2023-03-24T17:29:05;10.60;;;7.25;;
62574;SDS011;53112;45.602;11.904;2023-03-24T17:31:31;9.48;;;6.60;;
62574;SDS011;53112;45.602;11.904;2023-03-24T17:33:57;11.73;;;6.50;;
62574;SDS011;53112;45.602;11.904;2023-03-24T17:36:24;8.73;;;5.93;;
62574;SDS011;53112;45.602;11.904;2023-03-24T17:38:49;10.27;;;6.35;;
62574;SDS011;53112;45.602;11.904;2023-03-24T17:41:15;9.85;;;6.10;;
62574;SDS011;53112;45.602;11.904;2023-03-24T17:43:43;9.95;;;6.50;;
62574;SDS011;53112;45.602;11.904;2023-03-24T17:46:10;9.13;;;6.03;;
62574;SDS011;53112;45.602;11.904;2023-03-24T17:48:37;9.32;;;6.82;;
62574;SDS011;53112;45.602;11.904;2023-03-24T17:51:03;10.27;;;6.45;;
62574;SDS011;53112;45.602;11.904;2023-03-24T17:53:30;9.55;;;5.72;;
62574;SDS011;53112;45.602;11.904;2023-03-24T17:55:58;9.32;;;6.38;;
62574;SDS011;53112;45.602;11.904;2023-03-24T17:58:30;10.30;;;6.50;;
62574;SDS011;53112;45.602;11.904;2023-03-24T18:00:58;9.57;;;6.70;;